createdAt,value
2022-12-16T00:02:26.572Z,-4.96
2022-12-16T00:04:59.178Z,-5.10
2022-12-16T00:07:30.848Z,-5.15
2022-12-16T00:10:02.547Z,-5.29
2022-12-16T00:12:34.537Z,-5.38
2022-12-16T00:15:07.050Z,-5.07
2022-12-16T00:17:40.644Z,-4.90
2022-12-16T00:20:13.957Z,-4.92
2022-12-16T00:22:45.718Z,-4.91
2022-12-16T00:25:17.489Z,-4.91
2022-12-16T00:27:49.230Z,-5.17
2022-12-16T00:30:20.953Z,-5.15
2022-12-16T00:32:52.548Z,-5.15
2022-12-16T00:35:25.322Z,-5.05
2022-12-16T00:37:57.027Z,-5.10
2022-12-16T00:40:28.967Z,-5.18
2022-12-16T00:43:00.638Z,-4.99
2022-12-16T00:45:32.680Z,-4.90
2022-12-16T00:48:04.540Z,-4.96
2022-12-16T00:50:36.587Z,-4.84
2022-12-16T00:53:08.658Z,-4.96
2022-12-16T00:55:40.343Z,-5.14
2022-12-16T00:58:12.043Z,-5.15
2022-12-16T01:00:43.897Z,-5.28
2022-12-16T01:03:21.095Z,-5.30
2022-12-16T01:05:53.575Z,-5.17
2022-12-16T01:08:24.428Z,-5.00
2022-12-16T01:10:58.222Z,-4.95
2022-12-16T01:13:30.517Z,-4.95
2022-12-16T01:16:04.520Z,-4.88
2022-12-16T01:18:36.428Z,-5.04
2022-12-16T01:21:09.758Z,-5.13
2022-12-16T01:23:41.915Z,-5.08
2022-12-16T01:26:17.388Z,-5.28
2022-12-16T01:28:50.194Z,-5.42
2022-12-16T01:31:24.564Z,-5.56
2022-12-16T01:33:56.468Z,-5.43
2022-12-16T01:36:31.707Z,-5.33
2022-12-16T01:39:03.365Z,-5.51
2022-12-16T01:41:34.955Z,-5.60
2022-12-16T01:44:18.057Z,-5.68
2022-12-16T01:46:54.717Z,-5.73
2022-12-16T01:49:31.885Z,-5.86
2022-12-16T01:52:06.541Z,-5.63
2022-12-16T01:54:43.334Z,-5.41
2022-12-16T01:57:18.574Z,-5.18
2022-12-16T01:59:52.856Z,-5.03
2022-12-16T02:02:25.053Z,-5.17
2022-12-16T02:05:27.648Z,-5.21
2022-12-16T02:08:03.318Z,-5.53
2022-12-16T02:10:47.136Z,-5.72
2022-12-16T02:13:26.207Z,-5.74
2022-12-16T02:16:07.550Z,-5.78
2022-12-16T02:18:52.397Z,-5.86
2022-12-16T02:21:40.212Z,-5.73
2022-12-16T02:24:42.336Z,-5.80
2022-12-16T02:27:55.060Z,-5.86
2022-12-16T02:30:47.314Z,-5.59
2022-12-16T02:33:33.947Z,-5.26
2022-12-16T02:36:13.394Z,-5.29
2022-12-16T02:38:56.099Z,-5.23
2022-12-16T02:41:37.553Z,-5.43
2022-12-16T02:44:12.315Z,-5.51
2022-12-16T02:46:52.746Z,-5.45
2022-12-16T02:49:40.535Z,-5.51
2022-12-16T02:52:12.717Z,-5.23
2022-12-16T02:54:44.988Z,-5.01
2022-12-16T02:57:21.815Z,-4.86
2022-12-16T03:00:00.906Z,-4.76
2022-12-16T03:02:42.757Z,-4.86
2022-12-16T03:05:21.433Z,-4.83
2022-12-16T03:07:56.787Z,-4.62
2022-12-16T03:10:33.709Z,-4.56
2022-12-16T03:13:08.475Z,-4.46
2022-12-16T03:15:42.497Z,-4.67
2022-12-16T03:18:15.503Z,-4.58
2022-12-16T03:20:51.778Z,-4.48
2022-12-16T03:23:30.347Z,-4.40
2022-12-16T03:26:09.165Z,-4.37
2022-12-16T03:28:49.506Z,-4.36
2022-12-16T03:31:31.449Z,-4.34
2022-12-16T03:34:11.647Z,-4.43
2022-12-16T03:36:45.284Z,-4.37
2022-12-16T03:39:19.066Z,-4.45
2022-12-16T03:41:53.848Z,-4.52
2022-12-16T03:44:26.299Z,-4.60
2022-12-16T03:46:58.234Z,-4.45
2022-12-16T03:49:30.137Z,-4.70
2022-12-16T03:52:02.029Z,-4.76
2022-12-16T03:54:33.899Z,-4.65
2022-12-16T03:57:07.321Z,-4.89
2022-12-16T03:59:41.039Z,-4.77
2022-12-16T04:02:12.787Z,-4.71
2022-12-16T04:04:44.646Z,-4.68
2022-12-16T04:07:24.672Z,-4.52
2022-12-16T04:09:56.539Z,-4.34
2022-12-16T04:12:46.072Z,-4.24
2022-12-16T04:15:35.656Z,-4.33
2022-12-16T04:18:31.787Z,-4.19
2022-12-16T04:21:21.534Z,-4.35
2022-12-16T04:24:14.118Z,-4.40
2022-12-16T04:27:03.316Z,-4.20
2022-12-16T04:29:55.587Z,-4.24
2022-12-16T04:32:27.841Z,-4.39
2022-12-16T04:35:13.460Z,-4.61
2022-12-16T04:38:04.596Z,-4.47
2022-12-16T04:40:53.601Z,-4.69
2022-12-16T04:43:44.409Z,-4.79
2022-12-16T04:46:33.446Z,-4.88
2022-12-16T04:49:22.489Z,-4.61
2022-12-16T04:52:11.475Z,-4.68
2022-12-16T04:55:00.705Z,-4.55
2022-12-16T04:57:50.212Z,-4.54
2022-12-16T05:00:39.449Z,-4.88
2022-12-16T05:03:28.729Z,-4.99
2022-12-16T05:06:17.887Z,-5.10
2022-12-16T05:09:06.781Z,-5.17
2022-12-16T05:11:56.255Z,-5.08
2022-12-16T05:14:45.513Z,-5.07
2022-12-16T05:17:35.300Z,-5.06
2022-12-16T05:20:25.975Z,-5.22
2022-12-16T05:23:16.982Z,-5.20
2022-12-16T05:26:06.148Z,-5.09
2022-12-16T05:28:54.993Z,-4.89
2022-12-16T05:31:44.026Z,-4.58
2022-12-16T05:34:32.795Z,-4.42
2022-12-16T05:37:21.881Z,-4.50
2022-12-16T05:40:10.957Z,-4.55
2022-12-16T05:43:03.210Z,-4.40
2022-12-16T05:45:52.803Z,-4.26
2022-12-16T05:48:47.488Z,-4.44
2022-12-16T05:51:36.897Z,-4.39
2022-12-16T05:54:26.260Z,-4.27
2022-12-16T05:57:15.065Z,-4.09
2022-12-16T06:00:04.088Z,-4.05
2022-12-16T06:03:01.304Z,-4.14
2022-12-16T06:05:50.136Z,-4.11
2022-12-16T06:08:38.967Z,-4.14
2022-12-16T06:11:28.266Z,-4.48
2022-12-16T06:14:16.953Z,-4.39
2022-12-16T06:17:06.247Z,-4.25
2022-12-16T06:19:55.632Z,-4.12
2022-12-16T06:22:55.875Z,-4.11
2022-12-16T06:25:44.975Z,-4.08
2022-12-16T06:28:34.033Z,-3.95
2022-12-16T06:31:23.500Z,-3.92
2022-12-16T06:34:12.732Z,-3.84
2022-12-16T06:37:01.728Z,-3.79
2022-12-16T06:39:53.081Z,-3.99
2022-12-16T06:42:47.939Z,-3.95
2022-12-16T06:45:36.662Z,-3.97
2022-12-16T06:48:26.536Z,-3.87
2022-12-16T06:51:15.807Z,-4.16
2022-12-16T06:54:05.120Z,-4.21
2022-12-16T06:56:54.393Z,-4.19
2022-12-16T06:59:43.831Z,-4.41
2022-12-16T07:02:29.490Z,-4.50
2022-12-16T07:05:19.108Z,-4.24
2022-12-16T07:08:10.660Z,-4.02
2022-12-16T07:11:13.841Z,-4.24
2022-12-16T07:14:05.921Z,-4.15
2022-12-16T07:16:55.444Z,-4.25
2022-12-16T07:19:44.999Z,-4.52
2022-12-16T07:22:34.065Z,-4.48
2022-12-16T07:25:23.668Z,-4.46
2022-12-16T07:28:21.477Z,-4.63
2022-12-16T07:31:11.135Z,-4.53
2022-12-16T07:34:01.283Z,-4.55
2022-12-16T07:36:51.339Z,-4.51
2022-12-16T07:39:40.882Z,-4.21
2022-12-16T07:42:29.993Z,-4.09
2022-12-16T07:45:18.813Z,-4.01
2022-12-16T07:48:08.894Z,-4.16
2022-12-16T07:50:58.572Z,-4.04
2022-12-16T07:53:48.123Z,-4.10
2022-12-16T07:56:36.880Z,-4.27
2022-12-16T07:59:22.616Z,-4.07
2022-12-16T08:02:11.860Z,-4.10
2022-12-16T08:05:01.030Z,-4.10
2022-12-16T08:07:50.183Z,-4.12
2022-12-16T08:10:39.238Z,-3.97
2022-12-16T08:13:28.400Z,-3.96
2022-12-16T08:16:18.112Z,-3.91
2022-12-16T08:19:11.041Z,-3.75
2022-12-16T08:22:00.395Z,-3.82
2022-12-16T08:25:06.517Z,-3.82
2022-12-16T08:27:57.826Z,-3.84
2022-12-16T08:30:58.194Z,-3.78
2022-12-16T08:33:47.509Z,-3.80
2022-12-16T08:36:36.469Z,-3.69
2022-12-16T08:39:25.689Z,-3.63
2022-12-16T08:42:19.845Z,-3.79
2022-12-16T08:45:09.158Z,-3.70
2022-12-16T08:47:59.060Z,-3.46
2022-12-16T08:50:48.353Z,-3.57
2022-12-16T08:53:37.700Z,-3.69
2022-12-16T08:56:27.470Z,-3.56
2022-12-16T08:59:16.850Z,-3.67
2022-12-16T09:02:06.305Z,-3.61
2022-12-16T09:04:58.560Z,-3.50
2022-12-16T09:07:47.782Z,-3.43
2022-12-16T09:10:40.432Z,-3.44
2022-12-16T09:13:32.524Z,-3.53
2022-12-16T09:16:22.360Z,-3.44
2022-12-16T09:19:11.573Z,-3.45
2022-12-16T09:22:00.836Z,-3.39
2022-12-16T09:24:50.235Z,-3.37
2022-12-16T09:27:42.244Z,-3.35
2022-12-16T09:30:32.419Z,-3.33
2022-12-16T09:33:23.188Z,-3.45
2022-12-16T09:36:12.037Z,-3.39
2022-12-16T09:39:01.105Z,-3.14
2022-12-16T09:42:00.912Z,-3.07
2022-12-16T09:44:59.735Z,-3.19
2022-12-16T09:47:58.487Z,-3.09
2022-12-16T09:50:50.031Z,-3.05
2022-12-16T09:53:40.427Z,-3.07
2022-12-16T09:56:37.040Z,-2.99
2022-12-16T09:59:33.206Z,-2.91
2022-12-16T10:02:27.762Z,-2.79
2022-12-16T10:05:17.880Z,-2.88
2022-12-16T10:08:18.909Z,-2.85
2022-12-16T10:11:14.449Z,-2.90
2022-12-16T10:14:17.876Z,-2.65
2022-12-16T10:17:15.002Z,-2.53
2022-12-16T10:20:12.580Z,-2.35
2022-12-16T10:23:09.564Z,-2.19
2022-12-16T10:26:04.559Z,-2.08
2022-12-16T10:29:04.705Z,-2.34
2022-12-16T10:31:55.505Z,-2.43
2022-12-16T10:34:49.110Z,-2.44
2022-12-16T10:37:46.802Z,-2.62
2022-12-16T10:40:40.443Z,-2.44
2022-12-16T10:43:36.648Z,-2.37
2022-12-16T10:46:35.217Z,-2.29
2022-12-16T10:49:24.200Z,-2.12
2022-12-16T10:52:13.768Z,-2.10
2022-12-16T10:55:10.165Z,-2.28
2022-12-16T10:58:14.397Z,-2.20
2022-12-16T11:01:06.008Z,-2.26
2022-12-16T11:03:56.395Z,-2.08
2022-12-16T11:06:55.241Z,-2.15
2022-12-16T11:09:49.848Z,-1.97
2022-12-16T11:12:44.339Z,-1.94
2022-12-16T11:15:46.072Z,-2.00
2022-12-16T11:18:37.329Z,-1.86
2022-12-16T11:21:34.094Z,-1.94
2022-12-16T11:24:37.068Z,-1.88
2022-12-16T11:27:34.809Z,-2.09
2022-12-16T11:30:36.286Z,-1.85
2022-12-16T11:33:35.733Z,-1.84
2022-12-16T11:36:33.005Z,-1.71
2022-12-16T11:39:22.927Z,-1.76
2022-12-16T11:42:13.672Z,-2.05
2022-12-16T11:45:06.366Z,-2.08
2022-12-16T11:48:01.747Z,-2.10
2022-12-16T11:50:53.890Z,-2.17
2022-12-16T11:53:53.895Z,-2.09
2022-12-16T11:56:48.289Z,-2.00
2022-12-16T11:59:46.471Z,-1.87
2022-12-16T12:02:41.455Z,-1.98
2022-12-16T12:05:33.852Z,-1.84
2022-12-16T12:08:31.870Z,-1.66
2022-12-16T12:11:33.755Z,-1.64
2022-12-16T12:14:33.034Z,-1.54
2022-12-16T12:17:36.613Z,-1.48
2022-12-16T12:20:46.527Z,-1.77
2022-12-16T12:24:04.069Z,-2.03
2022-12-16T12:26:56.252Z,-1.77
2022-12-16T12:29:53.092Z,-1.53
2022-12-16T12:32:52.246Z,-1.55
2022-12-16T12:35:59.593Z,-1.65
2022-12-16T12:38:57.951Z,-1.88
2022-12-16T12:41:54.802Z,-1.73
2022-12-16T12:44:57.631Z,-2.06
2022-12-16T12:47:48.761Z,-2.05
2022-12-16T12:50:46.565Z,-1.91
2022-12-16T12:53:46.031Z,-2.00
2022-12-16T12:56:43.733Z,-1.98
2022-12-16T12:59:40.182Z,-1.82
2022-12-16T13:02:36.832Z,-1.98
2022-12-16T13:05:31.074Z,-1.90
2022-12-16T13:09:00.516Z,-2.04
2022-12-16T13:11:51.249Z,-2.17
2022-12-16T13:15:21.278Z,-2.00
2022-12-16T13:18:40.188Z,-2.13
2022-12-16T13:22:00.168Z,-2.08
2022-12-16T13:24:58.647Z,-1.85
2022-12-16T13:28:03.548Z,-1.93
2022-12-16T13:30:55.699Z,-2.14
2022-12-16T13:33:52.385Z,-1.92
2022-12-16T13:36:54.160Z,-1.76
2022-12-16T13:39:46.447Z,-2.10
2022-12-16T13:43:09.664Z,-2.06
2022-12-16T13:46:01.762Z,-2.07
2022-12-16T13:48:55.483Z,-2.14
2022-12-16T13:52:24.399Z,-2.15
2022-12-16T13:55:27.322Z,-2.09
2022-12-16T13:58:22.447Z,-2.15
2022-12-16T14:01:24.165Z,-2.04
2022-12-16T14:04:14.040Z,-1.99
2022-12-16T14:07:03.976Z,-2.12
2022-12-16T14:10:02.105Z,-2.29
2022-12-16T14:13:05.301Z,-2.18
2022-12-16T14:15:59.758Z,-2.19
2022-12-16T14:19:00.416Z,-2.11
2022-12-16T14:21:59.676Z,-2.24
2022-12-16T14:24:50.249Z,-2.16
2022-12-16T14:27:40.886Z,-2.27
2022-12-16T14:30:39.134Z,-2.16
2022-12-16T14:33:45.703Z,-2.21
2022-12-16T14:36:43.914Z,-2.15
2022-12-16T14:39:45.924Z,-2.16
2022-12-16T14:42:41.207Z,-2.44
2022-12-16T14:45:45.273Z,-2.52
2022-12-16T14:48:52.395Z,-2.52
2022-12-16T14:51:47.597Z,-2.66
2022-12-16T14:54:46.324Z,-2.74
2022-12-16T14:57:39.963Z,-2.56
2022-12-16T15:00:36.178Z,-2.71
2022-12-16T15:03:33.812Z,-2.57
2022-12-16T15:06:26.240Z,-2.44
2022-12-16T15:09:20.614Z,-2.57
2022-12-16T15:12:13.514Z,-2.63
2022-12-16T15:15:05.045Z,-2.64
2022-12-16T15:18:02.364Z,-2.75
2022-12-16T15:20:54.416Z,-2.80
2022-12-16T15:23:48.500Z,-2.80
2022-12-16T15:26:39.360Z,-2.61
2022-12-16T15:35:30.343Z,-2.32
2022-12-16T15:38:20.158Z,-2.31
2022-12-16T15:41:11.035Z,-2.29
2022-12-16T15:44:01.013Z,-2.19
2022-12-16T15:46:51.051Z,-2.38
2022-12-16T15:49:45.229Z,-2.47
2022-12-16T15:52:51.862Z,-2.49
2022-12-16T15:55:48.297Z,-2.62
2022-12-16T15:58:48.670Z,-2.48
2022-12-16T16:01:40.629Z,-2.62
2022-12-16T16:04:40.928Z,-2.63
2022-12-16T16:07:35.225Z,-2.74
2022-12-16T16:10:35.216Z,-2.79
2022-12-16T16:13:25.597Z,-2.67
2022-12-16T16:16:15.779Z,-2.66
2022-12-16T16:19:05.235Z,-2.60
2022-12-16T16:21:54.813Z,-2.62
2022-12-16T16:24:44.145Z,-2.76
2022-12-16T16:27:35.369Z,-2.62
2022-12-16T16:30:29.111Z,-2.76
2022-12-16T16:33:33.833Z,-2.78
2022-12-16T16:36:32.726Z,-2.75
2022-12-16T16:39:22.309Z,-2.71
2022-12-16T16:42:11.562Z,-2.69
2022-12-16T16:45:09.348Z,-2.73
2022-12-16T16:47:58.972Z,-2.58
2022-12-16T16:50:48.351Z,-2.52
2022-12-16T16:53:40.416Z,-2.76
2022-12-16T16:56:31.304Z,-2.63
2022-12-16T16:59:20.924Z,-2.73
2022-12-16T17:02:10.176Z,-2.81
2022-12-16T17:04:59.715Z,-2.82
2022-12-16T17:07:53.658Z,-2.89
2022-12-16T17:10:44.184Z,-2.74
2022-12-16T17:13:33.731Z,-2.71
2022-12-16T17:16:23.996Z,-2.64
2022-12-16T17:19:13.694Z,-2.65
2022-12-16T17:22:03.195Z,-2.61
2022-12-16T17:24:54.512Z,-2.69
2022-12-16T17:27:45.689Z,-2.79
2022-12-16T17:30:43.351Z,-2.77
2022-12-16T17:33:37.389Z,-2.66
2022-12-16T17:36:32.006Z,-2.69
2022-12-16T17:39:22.816Z,-2.70
2022-12-16T17:42:12.037Z,-2.96
2022-12-16T17:45:01.691Z,-2.99
2022-12-16T17:47:52.794Z,-2.90
2022-12-16T17:50:42.081Z,-2.65
2022-12-16T17:53:45.737Z,-2.74
2022-12-16T17:56:34.700Z,-2.89
2022-12-16T17:59:24.230Z,-2.71
2022-12-16T18:02:13.942Z,-2.56
2022-12-16T18:05:03.256Z,-2.75
2022-12-16T18:07:52.821Z,-2.80
2022-12-16T18:10:41.965Z,-2.93
2022-12-16T18:13:31.665Z,-3.06
2022-12-16T18:16:21.265Z,-2.88
2022-12-16T18:19:11.394Z,-2.73
2022-12-16T18:22:01.047Z,-2.70
2022-12-16T18:24:50.032Z,-2.71
2022-12-16T18:27:39.276Z,-2.62
2022-12-16T18:30:31.580Z,-2.82
2022-12-16T18:33:21.269Z,-2.82
2022-12-16T18:36:10.372Z,-3.00
2022-12-16T18:38:59.780Z,-3.07
2022-12-16T18:41:53.236Z,-3.17
2022-12-16T18:44:45.131Z,-2.90
2022-12-16T18:47:34.808Z,-2.94
2022-12-16T18:50:29.502Z,-2.86
2022-12-16T18:53:20.967Z,-3.00
2022-12-16T18:56:19.804Z,-2.99
2022-12-16T18:59:09.318Z,-3.04
2022-12-16T19:01:59.903Z,-2.84
2022-12-16T19:04:52.613Z,-2.85
2022-12-16T19:07:42.771Z,-2.90
2022-12-16T19:10:32.421Z,-2.97
2022-12-16T19:13:21.685Z,-3.12
2022-12-16T19:16:18.073Z,-3.01
2022-12-16T19:19:07.684Z,-3.00
2022-12-16T19:21:57.058Z,-3.18
2022-12-16T19:24:47.698Z,-3.23
2022-12-16T19:27:38.034Z,-3.22
2022-12-16T19:30:30.919Z,-3.34
2022-12-16T19:33:21.523Z,-3.05
2022-12-16T19:36:13.540Z,-3.00
2022-12-16T19:39:03.338Z,-3.12
2022-12-16T19:41:53.517Z,-3.23
2022-12-16T19:44:44.541Z,-3.21
2022-12-16T19:47:33.685Z,-3.32
2022-12-16T19:50:23.628Z,-3.34
2022-12-16T19:53:13.238Z,-3.35
2022-12-16T19:56:02.703Z,-3.28
2022-12-16T19:58:51.896Z,-3.29
2022-12-16T20:01:41.559Z,-3.22
2022-12-16T20:04:30.986Z,-3.19
2022-12-16T20:10:29.825Z,-2.93
2022-12-16T20:13:27.143Z,-2.99
2022-12-16T20:16:22.698Z,-2.95
2022-12-16T20:19:12.382Z,-2.86
2022-12-16T20:25:11.565Z,-3.02
2022-12-16T20:28:01.027Z,-2.96
2022-12-16T20:30:50.604Z,-2.91
2022-12-16T20:33:41.389Z,-2.97
2022-12-16T20:36:31.199Z,-2.93
2022-12-16T20:39:22.787Z,-3.07
2022-12-16T20:42:12.239Z,-2.91
2022-12-16T20:45:01.668Z,-3.06
2022-12-16T20:47:51.373Z,-3.08
2022-12-16T20:50:41.060Z,-2.89
2022-12-16T20:53:30.315Z,-2.82
2022-12-16T20:56:22.200Z,-2.93
2022-12-16T20:59:11.764Z,-2.89
2022-12-16T21:02:22.638Z,-2.81
2022-12-16T21:05:12.547Z,-2.65
2022-12-16T21:08:02.338Z,-2.55
2022-12-16T21:10:52.147Z,-2.57
2022-12-16T21:13:44.153Z,-2.73
2022-12-16T21:14:28.715Z,-2.92
2022-12-16T21:16:33.874Z,-2.92
2022-12-16T21:19:26.685Z,-2.94
2022-12-16T21:22:19.966Z,-3.05
2022-12-16T21:25:09.344Z,-2.98
2022-12-16T21:28:10.489Z,-3.01
2022-12-16T21:31:00.248Z,-2.79
2022-12-16T21:33:50.000Z,-2.85
2022-12-16T21:36:39.184Z,-2.84
2022-12-16T21:39:31.236Z,-2.85
2022-12-16T21:42:20.418Z,-2.82
2022-12-16T21:45:09.828Z,-2.99
2022-12-16T21:47:59.548Z,-2.78
2022-12-16T21:50:48.723Z,-2.78
2022-12-16T21:53:35.598Z,-2.80
2022-12-16T21:56:26.814Z,-2.66
2022-12-16T21:59:27.702Z,-2.80
2022-12-16T22:02:16.805Z,-2.82
2022-12-16T22:05:05.989Z,-2.83
2022-12-16T22:07:56.206Z,-2.82
2022-12-16T22:10:45.788Z,-2.99
2022-12-16T22:13:35.560Z,-2.89
2022-12-16T22:16:25.497Z,-2.84
2022-12-16T22:19:15.539Z,-2.87
2022-12-16T22:22:07.105Z,-2.65
2022-12-16T22:24:52.697Z,-2.50
2022-12-16T22:27:42.814Z,-2.71
2022-12-16T22:30:33.193Z,-2.81
2022-12-16T22:33:22.626Z,-3.00
2022-12-16T22:36:12.171Z,-2.95
2022-12-16T22:39:01.872Z,-2.85
2022-12-16T22:41:53.123Z,-2.96
2022-12-16T22:44:42.426Z,-2.83
2022-12-16T22:47:32.264Z,-2.85
2022-12-16T22:50:22.065Z,-2.91
2022-12-16T22:53:11.474Z,-2.81
2022-12-16T22:56:02.191Z,-2.59
2022-12-16T22:58:51.687Z,-2.47
2022-12-16T23:01:41.168Z,-2.41
2022-12-16T23:04:31.042Z,-2.33
2022-12-16T23:07:20.957Z,-2.58
2022-12-16T23:10:11.481Z,-2.79
2022-12-16T23:13:01.161Z,-2.81
2022-12-16T23:15:50.788Z,-2.89
2022-12-16T23:18:40.441Z,-2.78
2022-12-16T23:21:36.222Z,-2.72
2022-12-16T23:24:26.972Z,-2.76
2022-12-16T23:27:19.857Z,-2.82
2022-12-16T23:30:14.531Z,-2.86
2022-12-16T23:33:03.942Z,-3.00
2022-12-16T23:35:53.349Z,-2.96
2022-12-16T23:38:45.081Z,-2.94
2022-12-16T23:41:35.151Z,-3.05
2022-12-16T23:44:24.982Z,-3.00
2022-12-16T23:47:14.962Z,-2.94
2022-12-16T23:50:04.424Z,-2.96
2022-12-16T23:52:53.954Z,-3.09
2022-12-16T23:55:45.399Z,-3.08
2022-12-16T23:58:34.846Z,-2.94
